sensor_id;sensor_type;location;lat;lon;timestamp;P1;durP1;ratioP1;P2;durP2;ratioP2
13439;SDS011;6792;57.698;11.946;2022-09-09T00:00:55;0.80;;;0.80;;
13439;SDS011;6792;57.698;11.946;2022-09-09T00:03:24;1.47;;;1.00;;
13439;SDS011;6792;57.698;11.946;2022-09-09T00:05:58;1.30;;;1.10;;
13439;SDS011;6792;57.698;11.946;2022-09-09T00:08:31;0.70;;;0.70;;
13439;SDS011;6792;57.698;11.946;2022-09-09T00:11:03;0.60;;;0.60;;
13439;SDS011;6792;57.698;11.946;2022-09-09T00:13:34;0.65;;;0.60;;
13439;SDS011;6792;57.698;11.946;2022-09-09T00:16:07;3.08;;;0.70;;
13439;SDS011;6792;57.698;11.946;2022-09-09T00:18:40;1.95;;;0.72;;
13439;SDS011;6792;57.698;11.946;2022-09-09T00:21:18;0.57;;;0.57;;
13439;SDS011;6792;57.698;11.946;2022-09-09T00:23:49;0.82;;;0.80;;
13439;SDS011;6792;57.698;11.946;2022-09-09T00:26:21;1.27;;;0.80;;
13439;SDS011;6792;57.698;11.946;2022-09-09T00:28:57;1.27;;;0.60;;
13439;SDS011;6792;57.698;11.946;2022-09-09T00:31:28;0.53;;;0.53;;
13439;SDS011;6792;57.698;11.946;2022-09-09T00:33:58;0.40;;;0.40;;
13439;SDS011;6792;57.698;11.946;2022-09-09T00:36:30;1.17;;;0.60;;
13439;SDS011;6792;57.698;11.946;2022-09-09T00:39:02;0.42;;;0.42;;
13439;SDS011;6792;57.698;11.946;2022-09-09T00:41:36;0.70;;;0.70;;
13439;SDS011;6792;57.698;11.946;2022-09-09T00:44:12;0.60;;;0.60;;
13439;SDS011;6792;57.698;11.946;2022-09-09T00:46:49;0.60;;;0.60;;
13439;SDS011;6792;57.698;11.946;2022-09-09T00:49:26;1.50;;;0.80;;
13439;SDS011;6792;57.698;11.946;2022-09-09T00:52:02;0.70;;;0.70;;
13439;SDS011;6792;57.698;11.946;2022-09-09T00:54:40;0.60;;;0.60;;
13439;SDS011;6792;57.698;11.946;2022-09-09T00:57:16;0.98;;;0.75;;
13439;SDS011;6792;57.698;11.946;2022-09-09T00:59:51;1.25;;;0.90;;
13439;SDS011;6792;57.698;11.946;2022-09-09T01:02:26;0.72;;;0.70;;
13439;SDS011;6792;57.698;11.946;2022-09-09T01:04:58;1.15;;;0.75;;
13439;SDS011;6792;57.698;11.946;2022-09-09T01:07:31;0.60;;;0.60;;
13439;SDS011;6792;57.698;11.946;2022-09-09T01:10:00;0.90;;;0.60;;
13439;SDS011;6792;57.698;11.946;2022-09-09T01:12:35;0.70;;;0.70;;
13439;SDS011;6792;57.698;11.946;2022-09-09T01:15:12;1.65;;;0.70;;
13439;SDS011;6792;57.698;11.946;2022-09-09T01:17:48;0.60;;;0.60;;
13439;SDS011;6792;57.698;11.946;2022-09-09T01:20:20;1.27;;;0.60;;
13439;SDS011;6792;57.698;11.946;2022-09-09T01:23:01;0.65;;;0.60;;
13439;SDS011;6792;57.698;11.946;2022-09-09T01:26:03;2.05;;;0.80;;
13439;SDS011;6792;57.698;11.946;2022-09-09T01:28:39;0.78;;;0.50;;
13439;SDS011;6792;57.698;11.946;2022-09-09T01:31:12;2.40;;;0.68;;
13439;SDS011;6792;57.698;11.946;2022-09-09T01:33:43;0.53;;;0.50;;
13439;SDS011;6792;57.698;11.946;2022-09-09T01:36:13;2.05;;;0.60;;
13439;SDS011;6792;57.698;11.946;2022-09-09T01:38:46;4.00;;;0.78;;
13439;SDS011;6792;57.698;11.946;2022-09-09T01:41:15;0.70;;;0.70;;
13439;SDS011;6792;57.698;11.946;2022-09-09T01:43:44;1.35;;;0.65;;
13439;SDS011;6792;57.698;11.946;2022-09-09T01:46:12;1.20;;;0.90;;
13439;SDS011;6792;57.698;11.946;2022-09-09T01:48:42;0.93;;;0.70;;
13439;SDS011;6792;57.698;11.946;2022-09-09T01:51:27;1.92;;;0.70;;
13439;SDS011;6792;57.698;11.946;2022-09-09T01:53:57;1.72;;;0.65;;
13439;SDS011;6792;57.698;11.946;2022-09-09T01:56:30;1.00;;;0.72;;
13439;SDS011;6792;57.698;11.946;2022-09-09T01:59:07;0.98;;;0.90;;
13439;SDS011;6792;57.698;11.946;2022-09-09T02:01:46;0.90;;;0.90;;
13439;SDS011;6792;57.698;11.946;2022-09-09T02:04:22;0.57;;;0.57;;
13439;SDS011;6792;57.698;11.946;2022-09-09T02:06:56;0.88;;;0.70;;
13439;SDS011;6792;57.698;11.946;2022-09-09T02:09:25;0.80;;;0.80;;
13439;SDS011;6792;57.698;11.946;2022-09-09T02:11:57;0.98;;;0.70;;
13439;SDS011;6792;57.698;11.946;2022-09-09T02:14:30;0.60;;;0.60;;
13439;SDS011;6792;57.698;11.946;2022-09-09T02:17:01;2.03;;;0.90;;
13439;SDS011;6792;57.698;11.946;2022-09-09T02:19:34;0.75;;;0.75;;
13439;SDS011;6792;57.698;11.946;2022-09-09T02:22:05;1.35;;;0.80;;
13439;SDS011;6792;57.698;11.946;2022-09-09T02:24:35;0.90;;;0.78;;
13439;SDS011;6792;57.698;11.946;2022-09-09T02:27:06;2.25;;;0.80;;
13439;SDS011;6792;57.698;11.946;2022-09-09T02:29:38;1.25;;;0.70;;
13439;SDS011;6792;57.698;11.946;2022-09-09T02:32:09;0.80;;;0.80;;
13439;SDS011;6792;57.698;11.946;2022-09-09T02:34:42;1.37;;;0.72;;
13439;SDS011;6792;57.698;11.946;2022-09-09T02:37:12;0.68;;;0.68;;
13439;SDS011;6792;57.698;11.946;2022-09-09T02:39:43;1.62;;;0.78;;
13439;SDS011;6792;57.698;11.946;2022-09-09T02:42:12;0.90;;;0.90;;
13439;SDS011;6792;57.698;11.946;2022-09-09T02:44:41;0.60;;;0.60;;
13439;SDS011;6792;57.698;11.946;2022-09-09T02:47:15;1.02;;;0.78;;
13439;SDS011;6792;57.698;11.946;2022-09-09T02:49:58;2.12;;;0.60;;
13439;SDS011;6792;57.698;11.946;2022-09-09T02:52:35;1.05;;;0.95;;
13439;SDS011;6792;57.698;11.946;2022-09-09T02:55:09;1.42;;;0.95;;
13439;SDS011;6792;57.698;11.946;2022-09-09T02:57:40;4.00;;;0.90;;
13439;SDS011;6792;57.698;11.946;2022-09-09T03:00:12;0.85;;;0.85;;
13439;SDS011;6792;57.698;11.946;2022-09-09T03:02:41;0.72;;;0.72;;
13439;SDS011;6792;57.698;11.946;2022-09-09T03:05:11;1.00;;;0.85;;
13439;SDS011;6792;57.698;11.946;2022-09-09T03:07:40;1.40;;;0.93;;
13439;SDS011;6792;57.698;11.946;2022-09-09T03:10:09;1.07;;;0.80;;
13439;SDS011;6792;57.698;11.946;2022-09-09T03:12:38;4.22;;;1.42;;
13439;SDS011;6792;57.698;11.946;2022-09-09T03:15:08;1.02;;;0.90;;
13439;SDS011;6792;57.698;11.946;2022-09-09T03:17:37;0.90;;;0.90;;
13439;SDS011;6792;57.698;11.946;2022-09-09T03:20:07;0.90;;;0.90;;
13439;SDS011;6792;57.698;11.946;2022-09-09T03:22:37;3.62;;;0.90;;
13439;SDS011;6792;57.698;11.946;2022-09-09T03:25:07;1.45;;;0.95;;
13439;SDS011;6792;57.698;11.946;2022-09-09T03:27:36;1.20;;;1.10;;
13439;SDS011;6792;57.698;11.946;2022-09-09T03:30:05;1.43;;;1.00;;
13439;SDS011;6792;57.698;11.946;2022-09-09T03:32:35;1.30;;;1.10;;
13439;SDS011;6792;57.698;11.946;2022-09-09T03:35:06;1.23;;;0.70;;
13439;SDS011;6792;57.698;11.946;2022-09-09T03:37:35;1.95;;;0.90;;
13439;SDS011;6792;57.698;11.946;2022-09-09T03:40:05;1.70;;;0.88;;
13439;SDS011;6792;57.698;11.946;2022-09-09T03:42:36;2.45;;;1.00;;
13439;SDS011;6792;57.698;11.946;2022-09-09T03:45:07;2.17;;;0.88;;
13439;SDS011;6792;57.698;11.946;2022-09-09T03:47:37;0.98;;;0.90;;
13439;SDS011;6792;57.698;11.946;2022-09-09T03:50:07;1.25;;;0.90;;
13439;SDS011;6792;57.698;11.946;2022-09-09T03:52:37;1.72;;;0.93;;
13439;SDS011;6792;57.698;11.946;2022-09-09T03:55:07;1.32;;;0.90;;
13439;SDS011;6792;57.698;11.946;2022-09-09T03:57:36;2.40;;;1.00;;
13439;SDS011;6792;57.698;11.946;2022-09-09T04:00:06;1.07;;;1.00;;
13439;SDS011;6792;57.698;11.946;2022-09-09T04:02:36;1.00;;;1.00;;
13439;SDS011;6792;57.698;11.946;2022-09-09T04:05:06;1.20;;;1.10;;
13439;SDS011;6792;57.698;11.946;2022-09-09T04:07:36;2.45;;;1.20;;
13439;SDS011;6792;57.698;11.946;2022-09-09T04:10:06;2.20;;;1.00;;
13439;SDS011;6792;57.698;11.946;2022-09-09T04:12:36;1.20;;;1.10;;
13439;SDS011;6792;57.698;11.946;2022-09-09T04:15:05;1.55;;;1.20;;
13439;SDS011;6792;57.698;11.946;2022-09-09T04:17:35;0.80;;;0.80;;
13439;SDS011;6792;57.698;11.946;2022-09-09T04:20:04;1.80;;;1.10;;
13439;SDS011;6792;57.698;11.946;2022-09-09T04:22:35;3.12;;;1.27;;
13439;SDS011;6792;57.698;11.946;2022-09-09T04:25:05;2.50;;;1.07;;
13439;SDS011;6792;57.698;11.946;2022-09-09T04:27:35;1.25;;;1.10;;
13439;SDS011;6792;57.698;11.946;2022-09-09T04:30:04;3.05;;;1.10;;
13439;SDS011;6792;57.698;11.946;2022-09-09T04:32:35;0.90;;;0.90;;
13439;SDS011;6792;57.698;11.946;2022-09-09T04:35:04;1.40;;;1.10;;
13439;SDS011;6792;57.698;11.946;2022-09-09T04:37:33;1.00;;;1.00;;
13439;SDS011;6792;57.698;11.946;2022-09-09T04:40:02;2.98;;;1.07;;
13439;SDS011;6792;57.698;11.946;2022-09-09T04:42:35;0.98;;;0.98;;
13439;SDS011;6792;57.698;11.946;2022-09-09T04:45:05;1.52;;;1.20;;
13439;SDS011;6792;57.698;11.946;2022-09-09T04:47:37;2.15;;;1.17;;
13439;SDS011;6792;57.698;11.946;2022-09-09T04:50:07;1.30;;;0.95;;
13439;SDS011;6792;57.698;11.946;2022-09-09T04:52:36;1.47;;;0.90;;
13439;SDS011;6792;57.698;11.946;2022-09-09T04:55:06;1.65;;;0.75;;
13439;SDS011;6792;57.698;11.946;2022-09-09T04:57:36;2.25;;;1.07;;
13439;SDS011;6792;57.698;11.946;2022-09-09T05:00:06;2.52;;;1.00;;
13439;SDS011;6792;57.698;11.946;2022-09-09T05:02:37;3.08;;;1.00;;
13439;SDS011;6792;57.698;11.946;2022-09-09T05:05:06;1.32;;;1.02;;
13439;SDS011;6792;57.698;11.946;2022-09-09T05:07:37;2.37;;;1.05;;
13439;SDS011;6792;57.698;11.946;2022-09-09T05:10:06;2.17;;;1.20;;
13439;SDS011;6792;57.698;11.946;2022-09-09T05:12:36;1.35;;;1.00;;
13439;SDS011;6792;57.698;11.946;2022-09-09T05:15:06;2.12;;;0.80;;
13439;SDS011;6792;57.698;11.946;2022-09-09T05:17:38;2.67;;;1.00;;
13439;SDS011;6792;57.698;11.946;2022-09-09T05:20:08;1.95;;;0.90;;
13439;SDS011;6792;57.698;11.946;2022-09-09T05:22:38;3.08;;;1.10;;
13439;SDS011;6792;57.698;11.946;2022-09-09T05:25:08;1.52;;;1.22;;
13439;SDS011;6792;57.698;11.946;2022-09-09T05:27:37;1.72;;;1.00;;
13439;SDS011;6792;57.698;11.946;2022-09-09T05:30:07;3.35;;;1.02;;
13439;SDS011;6792;57.698;11.946;2022-09-09T05:32:37;2.22;;;1.12;;
13439;SDS011;6792;57.698;11.946;2022-09-09T05:35:07;1.85;;;1.35;;
13439;SDS011;6792;57.698;11.946;2022-09-09T05:37:36;2.83;;;0.98;;
13439;SDS011;6792;57.698;11.946;2022-09-09T05:40:06;4.60;;;1.37;;
13439;SDS011;6792;57.698;11.946;2022-09-09T05:42:37;3.62;;;1.27;;
13439;SDS011;6792;57.698;11.946;2022-09-09T05:45:07;3.05;;;1.27;;
13439;SDS011;6792;57.698;11.946;2022-09-09T05:47:37;1.37;;;0.93;;
13439;SDS011;6792;57.698;11.946;2022-09-09T05:50:06;1.98;;;1.00;;
13439;SDS011;6792;57.698;11.946;2022-09-09T05:52:36;4.67;;;1.10;;
13439;SDS011;6792;57.698;11.946;2022-09-09T05:55:06;2.05;;;1.37;;
13439;SDS011;6792;57.698;11.946;2022-09-09T05:57:38;3.50;;;1.30;;
13439;SDS011;6792;57.698;11.946;2022-09-09T06:00:09;5.58;;;1.35;;
13439;SDS011;6792;57.698;11.946;2022-09-09T06:02:41;5.40;;;1.67;;
13439;SDS011;6792;57.698;11.946;2022-09-09T06:05:10;3.67;;;1.60;;
13439;SDS011;6792;57.698;11.946;2022-09-09T06:07:39;3.30;;;1.30;;
13439;SDS011;6792;57.698;11.946;2022-09-09T06:10:10;3.17;;;1.32;;
13439;SDS011;6792;57.698;11.946;2022-09-09T06:12:39;4.37;;;1.32;;
13439;SDS011;6792;57.698;11.946;2022-09-09T06:15:09;5.22;;;1.40;;
13439;SDS011;6792;57.698;11.946;2022-09-09T06:17:38;5.10;;;1.95;;
13439;SDS011;6792;57.698;11.946;2022-09-09T06:20:08;2.50;;;1.37;;
13439;SDS011;6792;57.698;11.946;2022-09-09T06:22:39;4.00;;;1.95;;
13439;SDS011;6792;57.698;11.946;2022-09-09T06:25:13;3.67;;;1.85;;
13439;SDS011;6792;57.698;11.946;2022-09-09T06:27:42;4.08;;;1.62;;
13439;SDS011;6792;57.698;11.946;2022-09-09T06:30:12;6.47;;;1.77;;
13439;SDS011;6792;57.698;11.946;2022-09-09T06:32:43;3.17;;;1.82;;
13439;SDS011;6792;57.698;11.946;2022-09-09T06:35:12;4.92;;;1.70;;
13439;SDS011;6792;57.698;11.946;2022-09-09T06:37:44;3.60;;;1.77;;
13439;SDS011;6792;57.698;11.946;2022-09-09T06:40:15;7.55;;;2.22;;
13439;SDS011;6792;57.698;11.946;2022-09-09T06:42:44;2.75;;;1.98;;
13439;SDS011;6792;57.698;11.946;2022-09-09T06:45:14;14.40;;;3.20;;
13439;SDS011;6792;57.698;11.946;2022-09-09T06:47:43;6.08;;;2.20;;
13439;SDS011;6792;57.698;11.946;2022-09-09T06:50:12;6.75;;;2.70;;
13439;SDS011;6792;57.698;11.946;2022-09-09T06:52:43;7.70;;;3.62;;
13439;SDS011;6792;57.698;11.946;2022-09-09T06:55:14;4.33;;;2.42;;
13439;SDS011;6792;57.698;11.946;2022-09-09T06:57:43;6.62;;;2.75;;
13439;SDS011;6792;57.698;11.946;2022-09-09T07:00:15;5.40;;;2.75;;
13439;SDS011;6792;57.698;11.946;2022-09-09T07:02:45;7.20;;;2.90;;
13439;SDS011;6792;57.698;11.946;2022-09-09T07:05:14;3.95;;;2.83;;
13439;SDS011;6792;57.698;11.946;2022-09-09T07:07:43;3.70;;;2.70;;
13439;SDS011;6792;57.698;11.946;2022-09-09T07:10:12;4.83;;;3.10;;
13439;SDS011;6792;57.698;11.946;2022-09-09T07:12:41;6.45;;;2.67;;
13439;SDS011;6792;57.698;11.946;2022-09-09T07:15:10;4.35;;;2.40;;
13439;SDS011;6792;57.698;11.946;2022-09-09T07:17:40;4.40;;;2.45;;
13439;SDS011;6792;57.698;11.946;2022-09-09T07:20:09;5.15;;;2.62;;
13439;SDS011;6792;57.698;11.946;2022-09-09T07:22:38;4.03;;;2.12;;
13439;SDS011;6792;57.698;11.946;2022-09-09T07:25:08;7.65;;;2.35;;
13439;SDS011;6792;57.698;11.946;2022-09-09T07:27:37;4.47;;;2.30;;
13439;SDS011;6792;57.698;11.946;2022-09-09T07:30:08;3.45;;;2.35;;
13439;SDS011;6792;57.698;11.946;2022-09-09T07:32:38;4.78;;;2.72;;
13439;SDS011;6792;57.698;11.946;2022-09-09T07:35:07;6.53;;;3.08;;
13439;SDS011;6792;57.698;11.946;2022-09-09T07:37:36;3.00;;;2.08;;
13439;SDS011;6792;57.698;11.946;2022-09-09T07:40:06;5.03;;;2.40;;
13439;SDS011;6792;57.698;11.946;2022-09-09T07:42:36;3.65;;;1.92;;
13439;SDS011;6792;57.698;11.946;2022-09-09T07:45:05;2.25;;;1.95;;
13439;SDS011;6792;57.698;11.946;2022-09-09T07:47:35;6.67;;;2.90;;
13439;SDS011;6792;57.698;11.946;2022-09-09T07:50:04;3.37;;;1.92;;
13439;SDS011;6792;57.698;11.946;2022-09-09T07:52:35;9.20;;;1.98;;
13439;SDS011;6792;57.698;11.946;2022-09-09T07:55:05;3.75;;;1.52;;
13439;SDS011;6792;57.698;11.946;2022-09-09T07:57:35;2.50;;;1.52;;
13439;SDS011;6792;57.698;11.946;2022-09-09T08:00:05;6.70;;;1.95;;
13439;SDS011;6792;57.698;11.946;2022-09-09T08:02:37;6.75;;;1.50;;
13439;SDS011;6792;57.698;11.946;2022-09-09T08:05:06;8.23;;;1.50;;
13439;SDS011;6792;57.698;11.946;2022-09-09T08:07:35;3.47;;;1.30;;
13439;SDS011;6792;57.698;11.946;2022-09-09T08:10:05;2.72;;;1.57;;
13439;SDS011;6792;57.698;11.946;2022-09-09T08:12:34;3.77;;;1.42;;
13439;SDS011;6792;57.698;11.946;2022-09-09T08:15:04;7.70;;;1.82;;
13439;SDS011;6792;57.698;11.946;2022-09-09T08:17:34;3.30;;;1.72;;
13439;SDS011;6792;57.698;11.946;2022-09-09T08:20:04;5.55;;;1.45;;
13439;SDS011;6792;57.698;11.946;2022-09-09T08:22:34;3.08;;;1.40;;
13439;SDS011;6792;57.698;11.946;2022-09-09T08:25:04;5.00;;;2.00;;
13439;SDS011;6792;57.698;11.946;2022-09-09T08:27:36;4.05;;;1.20;;
13439;SDS011;6792;57.698;11.946;2022-09-09T08:30:06;3.37;;;1.40;;
13439;SDS011;6792;57.698;11.946;2022-09-09T08:32:36;2.47;;;1.32;;
13439;SDS011;6792;57.698;11.946;2022-09-09T08:35:06;4.90;;;1.77;;
13439;SDS011;6792;57.698;11.946;2022-09-09T08:37:36;3.02;;;1.55;;
13439;SDS011;6792;57.698;11.946;2022-09-09T08:40:07;1.50;;;1.40;;
13439;SDS011;6792;57.698;11.946;2022-09-09T08:42:39;3.00;;;1.52;;
13439;SDS011;6792;57.698;11.946;2022-09-09T08:45:22;9.50;;;1.98;;
13439;SDS011;6792;57.698;11.946;2022-09-09T08:47:57;4.25;;;1.72;;
13439;SDS011;6792;57.698;11.946;2022-09-09T08:50:34;2.77;;;1.30;;
13439;SDS011;6792;57.698;11.946;2022-09-09T08:53:09;1.82;;;1.20;;
13439;SDS011;6792;57.698;11.946;2022-09-09T08:55:40;2.98;;;1.25;;
13439;SDS011;6792;57.698;11.946;2022-09-09T08:58:13;2.22;;;1.37;;
13439;SDS011;6792;57.698;11.946;2022-09-09T09:00:54;2.87;;;1.72;;
13439;SDS011;6792;57.698;11.946;2022-09-09T09:03:30;2.58;;;1.60;;
13439;SDS011;6792;57.698;11.946;2022-09-09T09:06:06;2.00;;;1.30;;
13439;SDS011;6792;57.698;11.946;2022-09-09T09:08:39;4.67;;;1.87;;
13439;SDS011;6792;57.698;11.946;2022-09-09T09:11:11;5.65;;;1.80;;
13439;SDS011;6792;57.698;11.946;2022-09-09T09:13:41;3.72;;;1.50;;
13439;SDS011;6792;57.698;11.946;2022-09-09T09:16:15;5.40;;;2.25;;
13439;SDS011;6792;57.698;11.946;2022-09-09T09:18:48;3.50;;;1.80;;
13439;SDS011;6792;57.698;11.946;2022-09-09T09:21:19;3.30;;;1.60;;
13439;SDS011;6792;57.698;11.946;2022-09-09T09:23:53;3.55;;;1.40;;
13439;SDS011;6792;57.698;11.946;2022-09-09T09:26:23;5.30;;;1.42;;
13439;SDS011;6792;57.698;11.946;2022-09-09T09:28:55;2.72;;;1.45;;
13439;SDS011;6792;57.698;11.946;2022-09-09T09:31:25;4.08;;;1.50;;
13439;SDS011;6792;57.698;11.946;2022-09-09T09:33:55;5.80;;;1.85;;
13439;SDS011;6792;57.698;11.946;2022-09-09T09:36:25;6.15;;;1.47;;
13439;SDS011;6792;57.698;11.946;2022-09-09T09:39:02;5.22;;;1.95;;
13439;SDS011;6792;57.698;11.946;2022-09-09T09:41:33;3.27;;;1.32;;
13439;SDS011;6792;57.698;11.946;2022-09-09T09:44:05;26.73;;;3.25;;
13439;SDS011;6792;57.698;11.946;2022-09-09T09:46:47;6.08;;;1.87;;
13439;SDS011;6792;57.698;11.946;2022-09-09T09:49:16;8.13;;;2.37;;
13439;SDS011;6792;57.698;11.946;2022-09-09T09:51:45;4.53;;;1.50;;
13439;SDS011;6792;57.698;11.946;2022-09-09T09:54:17;2.65;;;1.47;;
13439;SDS011;6792;57.698;11.946;2022-09-09T09:56:49;9.63;;;1.70;;
13439;SDS011;6792;57.698;11.946;2022-09-09T09:59:22;8.13;;;1.95;;
13439;SDS011;6792;57.698;11.946;2022-09-09T10:01:53;6.47;;;1.50;;
13439;SDS011;6792;57.698;11.946;2022-09-09T10:04:22;4.75;;;1.80;;
13439;SDS011;6792;57.698;11.946;2022-09-09T10:06:51;4.08;;;1.40;;
13439;SDS011;6792;57.698;11.946;2022-09-09T10:09:23;3.35;;;1.95;;
13439;SDS011;6792;57.698;11.946;2022-09-09T10:11:56;5.05;;;1.85;;
13439;SDS011;6792;57.698;11.946;2022-09-09T10:14:32;7.28;;;2.08;;
13439;SDS011;6792;57.698;11.946;2022-09-09T10:17:07;2.40;;;1.55;;
13439;SDS011;6792;57.698;11.946;2022-09-09T10:19:40;6.42;;;1.77;;
13439;SDS011;6792;57.698;11.946;2022-09-09T10:22:15;3.72;;;2.08;;
13439;SDS011;6792;57.698;11.946;2022-09-09T10:27:57;3.35;;;1.60;;
13439;SDS011;6792;57.698;11.946;2022-09-09T10:30:35;7.58;;;2.00;;
13439;SDS011;6792;57.698;11.946;2022-09-09T10:33:07;4.72;;;1.87;;
13439;SDS011;6792;57.698;11.946;2022-09-09T10:35:39;5.62;;;2.02;;
13439;SDS011;6792;57.698;11.946;2022-09-09T10:38:13;3.30;;;1.70;;
13439;SDS011;6792;57.698;11.946;2022-09-09T10:40:50;4.33;;;2.10;;
13439;SDS011;6792;57.698;11.946;2022-09-09T10:43:36;3.45;;;1.87;;
13439;SDS011;6792;57.698;11.946;2022-09-09T10:49:26;2.45;;;2.22;;
13439;SDS011;6792;57.698;11.946;2022-09-09T10:52:00;3.75;;;1.90;;
13439;SDS011;6792;57.698;11.946;2022-09-09T10:54:34;2.85;;;2.08;;
13439;SDS011;6792;57.698;11.946;2022-09-09T10:57:08;4.30;;;2.10;;
13439;SDS011;6792;57.698;11.946;2022-09-09T10:59:40;2.30;;;1.92;;
13439;SDS011;6792;57.698;11.946;2022-09-09T11:02:14;1.67;;;1.45;;
13439;SDS011;6792;57.698;11.946;2022-09-09T11:04:47;7.37;;;2.00;;
13439;SDS011;6792;57.698;11.946;2022-09-09T11:07:21;4.70;;;1.70;;
13439;SDS011;6792;57.698;11.946;2022-09-09T11:09:52;4.03;;;1.80;;
13439;SDS011;6792;57.698;11.946;2022-09-09T11:12:24;3.75;;;1.67;;
13439;SDS011;6792;57.698;11.946;2022-09-09T11:14:55;4.62;;;2.15;;
13439;SDS011;6792;57.698;11.946;2022-09-09T11:17:29;3.52;;;2.15;;
13439;SDS011;6792;57.698;11.946;2022-09-09T11:20:00;4.62;;;2.60;;
13439;SDS011;6792;57.698;11.946;2022-09-09T11:22:30;3.77;;;1.77;;
13439;SDS011;6792;57.698;11.946;2022-09-09T11:25:03;7.00;;;2.20;;
13439;SDS011;6792;57.698;11.946;2022-09-09T11:27:35;2.90;;;2.10;;
13439;SDS011;6792;57.698;11.946;2022-09-09T11:30:12;4.17;;;1.90;;
13439;SDS011;6792;57.698;11.946;2022-09-09T11:33:02;3.62;;;2.27;;
13439;SDS011;6792;57.698;11.946;2022-09-09T11:35:49;5.28;;;2.87;;
13439;SDS011;6792;57.698;11.946;2022-09-09T11:38:29;8.63;;;2.95;;
13439;SDS011;6792;57.698;11.946;2022-09-09T11:41:01;6.67;;;2.33;;
13439;SDS011;6792;57.698;11.946;2022-09-09T11:43:37;4.28;;;2.20;;
13439;SDS011;6792;57.698;11.946;2022-09-09T11:46:07;4.80;;;2.27;;
13439;SDS011;6792;57.698;11.946;2022-09-09T11:48:38;5.42;;;2.37;;
13439;SDS011;6792;57.698;11.946;2022-09-09T11:51:10;2.55;;;1.75;;
13439;SDS011;6792;57.698;11.946;2022-09-09T11:53:50;4.15;;;2.35;;
13439;SDS011;6792;57.698;11.946;2022-09-09T11:56:24;3.15;;;1.95;;
13439;SDS011;6792;57.698;11.946;2022-09-09T11:58:57;3.05;;;2.02;;
13439;SDS011;6792;57.698;11.946;2022-09-09T12:01:34;4.33;;;2.10;;
13439;SDS011;6792;57.698;11.946;2022-09-09T12:04:15;4.03;;;2.25;;
13439;SDS011;6792;57.698;11.946;2022-09-09T12:06:58;3.30;;;2.10;;
13439;SDS011;6792;57.698;11.946;2022-09-09T12:09:32;4.12;;;1.77;;
13439;SDS011;6792;57.698;11.946;2022-09-09T12:12:17;3.42;;;2.10;;
13439;SDS011;6792;57.698;11.946;2022-09-09T12:14:56;2.72;;;1.77;;
13439;SDS011;6792;57.698;11.946;2022-09-09T12:17:31;4.30;;;2.22;;
13439;SDS011;6792;57.698;11.946;2022-09-09T12:20:04;6.33;;;2.25;;
13439;SDS011;6792;57.698;11.946;2022-09-09T12:22:40;5.22;;;2.35;;
13439;SDS011;6792;57.698;11.946;2022-09-09T12:25:31;5.78;;;2.90;;
13439;SDS011;6792;57.698;11.946;2022-09-09T12:28:05;2.52;;;2.10;;
13439;SDS011;6792;57.698;11.946;2022-09-09T12:30:41;4.78;;;2.58;;
13439;SDS011;6792;57.698;11.946;2022-09-09T12:33:16;3.55;;;2.20;;
13439;SDS011;6792;57.698;11.946;2022-09-09T12:35:45;3.92;;;2.10;;
13439;SDS011;6792;57.698;11.946;2022-09-09T12:38:19;2.17;;;1.90;;
13439;SDS011;6792;57.698;11.946;2022-09-09T12:40:54;4.08;;;2.08;;
13439;SDS011;6792;57.698;11.946;2022-09-09T12:43:25;3.55;;;2.17;;
13439;SDS011;6792;57.698;11.946;2022-09-09T12:45:56;2.70;;;2.10;;
13439;SDS011;6792;57.698;11.946;2022-09-09T12:48:32;3.60;;;2.12;;
13439;SDS011;6792;57.698;11.946;2022-09-09T12:51:04;5.87;;;2.37;;
13439;SDS011;6792;57.698;11.946;2022-09-09T12:53:35;2.17;;;1.85;;
13439;SDS011;6792;57.698;11.946;2022-09-09T12:56:06;4.55;;;2.30;;
13439;SDS011;6792;57.698;11.946;2022-09-09T12:58:37;4.60;;;1.95;;
13439;SDS011;6792;57.698;11.946;2022-09-09T13:01:18;8.05;;;2.37;;
13439;SDS011;6792;57.698;11.946;2022-09-09T13:03:50;3.77;;;2.40;;
13439;SDS011;6792;57.698;11.946;2022-09-09T13:06:20;3.22;;;2.08;;
13439;SDS011;6792;57.698;11.946;2022-09-09T13:08:50;6.28;;;2.72;;
13439;SDS011;6792;57.698;11.946;2022-09-09T13:11:22;4.85;;;1.98;;
13439;SDS011;6792;57.698;11.946;2022-09-09T13:13:54;4.95;;;2.67;;
13439;SDS011;6792;57.698;11.946;2022-09-09T13:16:26;4.55;;;1.87;;
13439;SDS011;6792;57.698;11.946;2022-09-09T13:18:58;4.40;;;2.52;;
13439;SDS011;6792;57.698;11.946;2022-09-09T13:21:34;4.70;;;2.37;;
13439;SDS011;6792;57.698;11.946;2022-09-09T13:24:05;4.60;;;2.42;;
13439;SDS011;6792;57.698;11.946;2022-09-09T13:26:36;4.12;;;2.20;;
13439;SDS011;6792;57.698;11.946;2022-09-09T13:29:14;6.97;;;2.33;;
13439;SDS011;6792;57.698;11.946;2022-09-09T13:31:45;5.20;;;2.83;;
13439;SDS011;6792;57.698;11.946;2022-09-09T13:34:25;2.60;;;2.05;;
13439;SDS011;6792;57.698;11.946;2022-09-09T13:36:59;4.28;;;2.55;;
13439;SDS011;6792;57.698;11.946;2022-09-09T13:39:29;3.33;;;2.00;;
13439;SDS011;6792;57.698;11.946;2022-09-09T13:41:58;5.60;;;2.55;;
13439;SDS011;6792;57.698;11.946;2022-09-09T13:44:30;5.33;;;2.83;;
13439;SDS011;6792;57.698;11.946;2022-09-09T13:47:02;5.37;;;2.80;;
13439;SDS011;6792;57.698;11.946;2022-09-09T13:49:32;5.53;;;2.55;;
13439;SDS011;6792;57.698;11.946;2022-09-09T13:52:05;2.67;;;2.08;;
13439;SDS011;6792;57.698;11.946;2022-09-09T13:54:40;4.42;;;2.40;;
13439;SDS011;6792;57.698;11.946;2022-09-09T13:57:14;6.42;;;1.98;;
13439;SDS011;6792;57.698;11.946;2022-09-09T13:59:45;4.28;;;2.77;;
13439;SDS011;6792;57.698;11.946;2022-09-09T14:02:14;6.08;;;2.37;;
13439;SDS011;6792;57.698;11.946;2022-09-09T14:04:44;5.00;;;2.50;;
13439;SDS011;6792;57.698;11.946;2022-09-09T14:07:15;3.02;;;2.33;;
13439;SDS011;6792;57.698;11.946;2022-09-09T14:09:45;2.83;;;1.95;;
13439;SDS011;6792;57.698;11.946;2022-09-09T14:12:16;6.67;;;2.80;;
13439;SDS011;6792;57.698;11.946;2022-09-09T14:14:45;3.70;;;2.27;;
13439;SDS011;6792;57.698;11.946;2022-09-09T14:17:14;3.98;;;2.33;;
13439;SDS011;6792;57.698;11.946;2022-09-09T14:19:43;2.92;;;2.00;;
13439;SDS011;6792;57.698;11.946;2022-09-09T14:22:13;3.77;;;1.70;;
13439;SDS011;6792;57.698;11.946;2022-09-09T14:24:57;2.72;;;2.00;;
13439;SDS011;6792;57.698;11.946;2022-09-09T14:27:26;2.72;;;2.22;;
13439;SDS011;6792;57.698;11.946;2022-09-09T14:29:56;3.37;;;2.35;;
13439;SDS011;6792;57.698;11.946;2022-09-09T14:32:26;3.33;;;2.47;;
13439;SDS011;6792;57.698;11.946;2022-09-09T14:34:55;2.42;;;2.22;;
13439;SDS011;6792;57.698;11.946;2022-09-09T14:37:24;3.52;;;1.90;;
13439;SDS011;6792;57.698;11.946;2022-09-09T14:39:54;3.05;;;1.90;;
13439;SDS011;6792;57.698;11.946;2022-09-09T14:42:23;5.20;;;2.27;;
13439;SDS011;6792;57.698;11.946;2022-09-09T14:44:52;5.00;;;2.30;;
13439;SDS011;6792;57.698;11.946;2022-09-09T14:47:21;6.58;;;2.35;;
13439;SDS011;6792;57.698;11.946;2022-09-09T14:49:51;1.62;;;1.52;;
13439;SDS011;6792;57.698;11.946;2022-09-09T14:52:21;3.10;;;2.20;;
13439;SDS011;6792;57.698;11.946;2022-09-09T14:54:50;3.05;;;1.87;;
13439;SDS011;6792;57.698;11.946;2022-09-09T14:57:19;3.08;;;2.25;;
13439;SDS011;6792;57.698;11.946;2022-09-09T14:59:47;2.30;;;2.10;;
13439;SDS011;6792;57.698;11.946;2022-09-09T15:02:17;3.22;;;2.37;;
13439;SDS011;6792;57.698;11.946;2022-09-09T15:04:45;2.45;;;1.82;;
13439;SDS011;6792;57.698;11.946;2022-09-09T15:07:16;2.65;;;2.17;;
13439;SDS011;6792;57.698;11.946;2022-09-09T15:09:45;3.12;;;1.80;;
13439;SDS011;6792;57.698;11.946;2022-09-09T15:12:15;3.12;;;1.98;;
13439;SDS011;6792;57.698;11.946;2022-09-09T15:14:45;2.15;;;1.87;;
13439;SDS011;6792;57.698;11.946;2022-09-09T15:17:14;2.40;;;2.20;;
13439;SDS011;6792;57.698;11.946;2022-09-09T15:19:43;3.87;;;2.37;;
13439;SDS011;6792;57.698;11.946;2022-09-09T15:22:12;3.70;;;2.30;;